Sunday, May 27, 2018, 10:02 AM GMT
Back to Local

CYTR, Trenton, Ont.

Location: , , Canada Lat: 44.117
Local Time: 10:02 AM GMT (10:02 GMT) Lon: -77.533
Time Zone: GMT Elev: 278 ft

Show me the last for .
Show Decoded

2018-05-27 09:00 METAR CYTR 270900Z 03004KT 15SM BKN110 17/16 A2989 RMK AC5 SLP124 =
2018-05-27 08:00 METAR CYTR 270800Z 05004KT 15SM BKN110 18/16 A2989 RMK AC6 SLP122 =
2018-05-27 07:00 METAR CYTR 270700Z 03004KT 15SM BKN110 18/16 A2988 RMK AC6 SLP119 =
2018-05-27 06:00 METAR CYTR 270600Z 03003KT 15SM BKN110 18/17 A2989 RMK AC6 SLP121 =
2018-05-27 05:00 METAR CYTR 270500Z 07003KT 15SM BKN110 19/18 A2989 RMK AC7 SLP121 =
2018-05-27 04:00 METAR CYTR 270400Z 07003KT 15SM BKN110 19/18 A2988 RMK AC7 SLP119 =
2018-05-27 03:00 METAR CYTR 270300Z 05005KT 10SM OVC110 19/17 A2987 RMK AC8 SLP115 =
2018-05-27 02:52 METAR CYTR 270252Z 05003KT 10SM OVC110 19/17 A2987 RMK AC8 SLP115 =
2018-05-27 02:00 METAR CYTR 270200Z 08003KT 10SM -SHRA SCT036 OVC100 19/18 A2987 RMK SC3AC5
                 SLP115 =
2018-05-27 01:52 METAR CYTR 270152Z 04005KT 6SM -SHRA BR SCT036 BKN077 OVC100 19/18 A2987 RMK
                 SC3AC2AC3 SLP114 =
2018-05-27 01:00 METAR CYTR 270100Z 00000KT 6SM -SHRA BR FEW014 BKN020 OVC080 19/18 A2987 RMK
                 SF2SC4AC2 SLP114 =
2018-05-27 00:16 METAR CYTR 270016Z 24006KT 4SM SHRA BR BKN023 OVC080 20/18 A2988 RMK SC6AC2 CB
                 EMBD OVRHD MOVG E PRESRR SLP118 =
2018-05-27 00:00 METAR CYTR 270000Z CCA 03003KT 5SM -SHRA BR BKN023 OVC080 19/17 A2986 RMK SC6AC2
                 CB EMBD W MOVG E SLP112 =
2018-05-26 23:00 METAR CYTR 262300Z 35009G15KT 5SM -SHRA BR BKN016 OVC068 20/17 A2984 RMK SC5AC3
                 SLP107 =
2018-05-26 22:39 METAR CYTR 262239Z 32012KT 3SM +SHRA BR BKN020 OVC068 20/18 A2984 RMK SC6AC2
                 SLP107 =
2018-05-26 22:34 METAR CYTR 262234Z 32009KT 2 1/2SM SHRA BR BKN020 OVC068 20/18 A2984 RMK SC6AC2
                 SLP106 =
2018-05-26 22:00 METAR CYTR 262200Z 01002KT 6SM -SHRA BR BKN040 OVC110 22/17 A2982 RMK SC6AC2
                 SLP099 =
2018-05-26 21:52 METAR CYTR 262152Z 32006KT 6SM -SHRA BR BKN040 OVC110 23/17 A2982 RMK SC6AC2
                 SLP099 =
2018-05-26 21:45 METAR CYTR 262145Z 32007KT 6SM BR BKN040 OVC110 23/15 A2982 RMK SC6AC2 SLP099 =
2018-05-26 21:39 METAR CYTR 262139Z 00000KT 15SM BKN040 OVC110 24/15 A2982 RMK SC6AC2 SLP096 =
2018-05-26 21:00 METAR CYTR 262100Z 19003KT 15SM TS BKN040 BKN085 OVC250 23/15 A2981 RMK
                 SC5AC2CI2 CB EMBD MOVG E OCNL LTGIC SLP093 =
2018-05-26 20:32 METAR CYTR 262032Z 19005KT 15SM TS SCT040 BKN120 OVC250 24/15 A2979 RMK
                 SC3AC2CI2 CB EMBD N MOVG E SLP087 =
2018-05-26 20:00 METAR CYTR 262000Z 21008KT 15SM SCT040 BKN120 OVC250 23/15 A2979 RMK SC3AC2CI2
                 CB EMBD DIST NW MOVG E SLP088 =
2018-05-26 19:00 METAR CYTR 261900Z 20009KT 15SM FEW040 FEW120 BKN250 25/16 A2979 RMK CU1AC1CI6
                 SLP088 =
2018-05-26 18:00 METAR CYTR 261800Z 21008KT 15SM FEW040 FEW120 BKN250 25/16 A2979 RMK CU1AC1CI6
                 SLP087 =
2018-05-26 17:00 METAR CYTR 261700Z 20009KT 15SM FEW040 SCT120 BKN250 24/16 A2978 RMK CF1AC2CI4
                 SLP084 =
2018-05-26 16:00 METAR CYTR 261600Z 22004KT 15SM FEW060 BKN120 OVC250 24/16 A2978 RMK CF1AC4CI3
                 SLP084 =
2018-05-26 15:00 METAR CYTR 261500Z 18003KT 15SM FEW120 OVC250 24/16 A2977 RMK AC2CI6 SLP081 =
2018-05-26 14:00 METAR CYTR 261400Z 22004KT 15SM SCT120 OVC250 22/15 A2977 RMK AC4CI4 SLP080 =
2018-05-26 13:00 METAR CYTR 261300Z 22005KT 15SM BKN120 OVC250 21/13 A2977 RMK AC6CI2 SLP080 =
2018-05-26 12:00 METAR CYTR 261200Z 21003KT 15SM BKN080 OVC250 20/12 A2975 RMK AC5CI3 SLP076 =
2018-05-26 11:00 METAR CYTR 261100Z CCA 22006KT 15SM BKN080 OVC250 19/11 A2974 RMK AC5CI3 SLP071
                 =

Support USWX by starting your Amazon purchase here.